Aviation Digital Data Service (ADDS)

Output produced by METARs form (1253 UTC 05 July 2015)
found at http://aviationweather.gov/adds/metars/
 
KAEX 051120Z 0512/0612 VRB03KT P6SM VCSH FEW025 BKN250 
     FM051500 20007KT P6SM VCTS BKN035CB 
     FM060300 VRB03KT P6SM BKN250